Terminal Aerodrome Forecast
Issued by NWS Mt. Holly, NJ

Home | Current Version | Previous Version | Text Only | Print | Product List | Glossary On
Versions: 1 2 3 4 5 6 7 8 9 10 11 12 13 14 15 16 17 18
000
FTUS41 KPHI 260530
TAFILG
TAF
KILG 260530Z 2606/2706 30012G22KT P6SM SCT050
     FM260800 30010KT P6SM FEW060
     FM261400 29014G24KT P6SM BKN050
     FM262300 27007KT P6SM FEW060
     FM270200 24004KT P6SM SKC=

USA.gov is the U.S. government's official web portal to all federal, state and local government web resources and services.